sensor_id;sensor_type;location;lat;lon;timestamp;pressure;altitude;pressure_sealevel;temperature;humidity
50123;BME280;36021;48.670;6.184;2023-03-13T00:00:50;98470.22;;;11.22;100.00
50123;BME280;36021;48.670;6.184;2023-03-13T00:03:16;98455.66;;;11.22;100.00
50123;BME280;36021;48.670;6.184;2023-03-13T00:05:43;98457.41;;;11.18;100.00
50123;BME280;36021;48.670;6.184;2023-03-13T00:08:11;98459.72;;;11.02;100.00
50123;BME280;36021;48.670;6.184;2023-03-13T00:10:39;98465.63;;;11.09;100.00
50123;BME280;36021;48.670;6.184;2023-03-13T00:13:08;98486.56;;;10.96;100.00
50123;BME280;36021;48.670;6.184;2023-03-13T00:15:34;98479.94;;;10.97;100.00
50123;BME280;36021;48.670;6.184;2023-03-13T00:18:00;98481.19;;;10.91;100.00
50123;BME280;36021;48.670;6.184;2023-03-13T00:20:25;98476.72;;;10.82;100.00
50123;BME280;36021;48.670;6.184;2023-03-13T00:22:51;98469.56;;;10.81;100.00
50123;BME280;36021;48.670;6.184;2023-03-13T00:25:17;98463.56;;;10.79;100.00
50123;BME280;36021;48.670;6.184;2023-03-13T00:27:42;98494.28;;;10.72;100.00
50123;BME280;36021;48.670;6.184;2023-03-13T00:30:08;98471.41;;;10.72;100.00
50123;BME280;36021;48.670;6.184;2023-03-13T00:32:40;98472.44;;;10.76;100.00
50123;BME280;36021;48.670;6.184;2023-03-13T00:35:06;98471.63;;;10.75;100.00
50123;BME280;36021;48.670;6.184;2023-03-13T00:37:32;98485.59;;;10.79;100.00
50123;BME280;36021;48.670;6.184;2023-03-13T00:39:58;98474.06;;;10.77;100.00
50123;BME280;36021;48.670;6.184;2023-03-13T00:42:23;98480.19;;;10.74;100.00
50123;BME280;36021;48.670;6.184;2023-03-13T00:44:49;98475.91;;;10.68;100.00
50123;BME280;36021;48.670;6.184;2023-03-13T00:47:14;98462.34;;;10.71;100.00
50123;BME280;36021;48.670;6.184;2023-03-13T00:49:42;98461.72;;;10.61;100.00
50123;BME280;36021;48.670;6.184;2023-03-13T00:52:07;98460.34;;;10.50;100.00
50123;BME280;36021;48.670;6.184;2023-03-13T00:54:33;98445.53;;;10.45;100.00
50123;BME280;36021;48.670;6.184;2023-03-13T00:57:00;98467.09;;;10.43;100.00
50123;BME280;36021;48.670;6.184;2023-03-13T00:59:26;98456.22;;;10.47;100.00
50123;BME280;36021;48.670;6.184;2023-03-13T01:01:51;98466.66;;;10.50;100.00
50123;BME280;36021;48.670;6.184;2023-03-13T01:04:17;98457.47;;;10.41;100.00
50123;BME280;36021;48.670;6.184;2023-03-13T01:06:44;98468.41;;;10.46;100.00
50123;BME280;36021;48.670;6.184;2023-03-13T01:09:12;98487.34;;;10.48;100.00
50123;BME280;36021;48.670;6.184;2023-03-13T01:11:40;98450.56;;;10.43;100.00
50123;BME280;36021;48.670;6.184;2023-03-13T01:14:13;98454.31;;;10.48;100.00
50123;BME280;36021;48.670;6.184;2023-03-13T01:16:39;98443.09;;;10.44;100.00
50123;BME280;36021;48.670;6.184;2023-03-13T01:19:12;98431.78;;;10.45;100.00
50123;BME280;36021;48.670;6.184;2023-03-13T01:21:40;98432.25;;;10.48;100.00
50123;BME280;36021;48.670;6.184;2023-03-13T01:24:06;98457.19;;;10.42;100.00
50123;BME280;36021;48.670;6.184;2023-03-13T01:26:32;98451.97;;;10.41;100.00
50123;BME280;36021;48.670;6.184;2023-03-13T01:28:58;98439.53;;;10.43;100.00
50123;BME280;36021;48.670;6.184;2023-03-13T01:31:26;98446.16;;;10.42;100.00
50123;BME280;36021;48.670;6.184;2023-03-13T01:33:58;98430.44;;;10.43;100.00
50123;BME280;36021;48.670;6.184;2023-03-13T01:36:25;98419.00;;;10.50;100.00
50123;BME280;36021;48.670;6.184;2023-03-13T01:38:56;98424.72;;;10.53;100.00
50123;BME280;36021;48.670;6.184;2023-03-13T01:41:25;98412.88;;;10.53;100.00
50123;BME280;36021;48.670;6.184;2023-03-13T01:43:52;98422.66;;;10.59;100.00
50123;BME280;36021;48.670;6.184;2023-03-13T01:46:22;98412.25;;;10.56;100.00
50123;BME280;36021;48.670;6.184;2023-03-13T01:49:26;98403.88;;;10.61;100.00
50123;BME280;36021;48.670;6.184;2023-03-13T01:52:20;98400.00;;;10.62;100.00
50123;BME280;36021;48.670;6.184;2023-03-13T01:55:01;98393.88;;;10.65;100.00
50123;BME280;36021;48.670;6.184;2023-03-13T01:57:39;98394.69;;;10.65;100.00
50123;BME280;36021;48.670;6.184;2023-03-13T02:02:42;98396.19;;;10.71;100.00
50123;BME280;36021;48.670;6.184;2023-03-13T02:05:11;98379.78;;;10.66;100.00
50123;BME280;36021;48.670;6.184;2023-03-13T02:07:42;98397.09;;;10.67;100.00
50123;BME280;36021;48.670;6.184;2023-03-13T02:10:14;98388.53;;;10.68;100.00
50123;BME280;36021;48.670;6.184;2023-03-13T02:12:43;98384.06;;;10.72;100.00
50123;BME280;36021;48.670;6.184;2023-03-13T02:15:14;98388.94;;;10.75;100.00
50123;BME280;36021;48.670;6.184;2023-03-13T02:17:41;98380.03;;;10.78;100.00
50123;BME280;36021;48.670;6.184;2023-03-13T02:20:08;98392.91;;;10.83;100.00
50123;BME280;36021;48.670;6.184;2023-03-13T02:22:42;98383.00;;;10.82;100.00
50123;BME280;36021;48.670;6.184;2023-03-13T02:25:47;98388.50;;;10.82;100.00
50123;BME280;36021;48.670;6.184;2023-03-13T02:28:17;98386.03;;;10.80;100.00
50123;BME280;36021;48.670;6.184;2023-03-13T02:30:46;98378.97;;;10.88;100.00
50123;BME280;36021;48.670;6.184;2023-03-13T02:33:13;98366.00;;;10.88;100.00
50123;BME280;36021;48.670;6.184;2023-03-13T02:35:39;98357.41;;;10.90;100.00
50123;BME280;36021;48.670;6.184;2023-03-13T02:38:15;98354.56;;;10.95;100.00
50123;BME280;36021;48.670;6.184;2023-03-13T02:40:44;98337.03;;;10.99;100.00
50123;BME280;36021;48.670;6.184;2023-03-13T02:43:33;98327.16;;;10.98;100.00
50123;BME280;36021;48.670;6.184;2023-03-13T02:46:08;98316.63;;;11.01;100.00
50123;BME280;36021;48.670;6.184;2023-03-13T02:48:40;98328.00;;;10.99;100.00
50123;BME280;36021;48.670;6.184;2023-03-13T02:51:37;98333.06;;;11.06;100.00
50123;BME280;36021;48.670;6.184;2023-03-13T02:54:11;98315.25;;;11.12;100.00
50123;BME280;36021;48.670;6.184;2023-03-13T02:56:42;98321.06;;;11.10;100.00
50123;BME280;36021;48.670;6.184;2023-03-13T02:59:10;98331.97;;;11.15;100.00
50123;BME280;36021;48.670;6.184;2023-03-13T03:01:39;98323.81;;;11.10;100.00
50123;BME280;36021;48.670;6.184;2023-03-13T03:04:05;98325.41;;;11.03;100.00
50123;BME280;36021;48.670;6.184;2023-03-13T03:06:30;98337.38;;;10.98;100.00
50123;BME280;36021;48.670;6.184;2023-03-13T03:08:58;98328.00;;;10.99;100.00
50123;BME280;36021;48.670;6.184;2023-03-13T03:11:26;98321.47;;;10.95;100.00
50123;BME280;36021;48.670;6.184;2023-03-13T03:13:58;98319.56;;;11.04;100.00
50123;BME280;36021;48.670;6.184;2023-03-13T03:16:29;98320.06;;;11.06;100.00
50123;BME280;36021;48.670;6.184;2023-03-13T03:18:55;98322.81;;;11.06;100.00
50123;BME280;36021;48.670;6.184;2023-03-13T03:21:20;98318.31;;;11.10;100.00
50123;BME280;36021;48.670;6.184;2023-03-13T03:23:50;98331.59;;;11.08;100.00
50123;BME280;36021;48.670;6.184;2023-03-13T03:26:16;98308.53;;;11.04;100.00
50123;BME280;36021;48.670;6.184;2023-03-13T03:28:42;98321.84;;;11.02;100.00
50123;BME280;36021;48.670;6.184;2023-03-13T03:31:14;98319.75;;;11.08;100.00
50123;BME280;36021;48.670;6.184;2023-03-13T03:33:40;98319.94;;;11.11;100.00
50123;BME280;36021;48.670;6.184;2023-03-13T03:36:14;98302.75;;;11.14;100.00
50123;BME280;36021;48.670;6.184;2023-03-13T03:38:41;98307.78;;;11.12;100.00
50123;BME280;36021;48.670;6.184;2023-03-13T03:41:09;98303.88;;;11.13;100.00
50123;BME280;36021;48.670;6.184;2023-03-13T03:43:35;98300.31;;;11.13;100.00
50123;BME280;36021;48.670;6.184;2023-03-13T03:46:03;98309.72;;;11.12;100.00
50123;BME280;36021;48.670;6.184;2023-03-13T03:48:28;98313.78;;;11.14;100.00
50123;BME280;36021;48.670;6.184;2023-03-13T03:50:54;98308.91;;;11.11;100.00
50123;BME280;36021;48.670;6.184;2023-03-13T03:53:21;98309.91;;;11.15;100.00
50123;BME280;36021;48.670;6.184;2023-03-13T03:55:47;98321.25;;;11.14;100.00
50123;BME280;36021;48.670;6.184;2023-03-13T03:58:13;98317.03;;;11.16;100.00
50123;BME280;36021;48.670;6.184;2023-03-13T04:01:04;98332.81;;;11.16;100.00
50123;BME280;36021;48.670;6.184;2023-03-13T04:03:31;98334.09;;;11.18;100.00
50123;BME280;36021;48.670;6.184;2023-03-13T04:05:58;98332.94;;;11.19;100.00
50123;BME280;36021;48.670;6.184;2023-03-13T04:08:24;98339.47;;;11.23;100.00
50123;BME280;36021;48.670;6.184;2023-03-13T04:10:50;98332.50;;;11.26;100.00
50123;BME280;36021;48.670;6.184;2023-03-13T04:13:19;98330.75;;;11.30;100.00
50123;BME280;36021;48.670;6.184;2023-03-13T04:15:49;98329.28;;;11.32;100.00
50123;BME280;36021;48.670;6.184;2023-03-13T04:18:16;98326.06;;;11.30;100.00
50123;BME280;36021;48.670;6.184;2023-03-13T04:20:42;98312.88;;;11.27;100.00
50123;BME280;36021;48.670;6.184;2023-03-13T04:23:09;98315.16;;;11.25;100.00
50123;BME280;36021;48.670;6.184;2023-03-13T04:25:35;98317.56;;;11.18;100.00
50123;BME280;36021;48.670;6.184;2023-03-13T04:28:02;98337.34;;;11.20;100.00
50123;BME280;36021;48.670;6.184;2023-03-13T04:30:35;98319.78;;;11.16;100.00
50123;BME280;36021;48.670;6.184;2023-03-13T04:33:20;98313.16;;;11.17;100.00
50123;BME280;36021;48.670;6.184;2023-03-13T04:36:06;98322.91;;;11.23;100.00
50123;BME280;36021;48.670;6.184;2023-03-13T04:38:49;98325.56;;;11.28;100.00
50123;BME280;36021;48.670;6.184;2023-03-13T04:41:31;98330.44;;;11.31;100.00
50123;BME280;36021;48.670;6.184;2023-03-13T04:44:15;98332.22;;;11.36;100.00
50123;BME280;36021;48.670;6.184;2023-03-13T04:47:00;98316.69;;;11.40;100.00
50123;BME280;36021;48.670;6.184;2023-03-13T04:49:37;98321.91;;;11.41;100.00
50123;BME280;36021;48.670;6.184;2023-03-13T04:52:23;98307.94;;;11.46;100.00
50123;BME280;36021;48.670;6.184;2023-03-13T04:54:51;98325.00;;;11.48;100.00
50123;BME280;36021;48.670;6.184;2023-03-13T04:57:44;98333.31;;;11.57;100.00
50123;BME280;36021;48.670;6.184;2023-03-13T05:00:29;98319.53;;;11.57;100.00
50123;BME280;36021;48.670;6.184;2023-03-13T05:03:27;98309.78;;;11.60;100.00
50123;BME280;36021;48.670;6.184;2023-03-13T05:06:25;98306.56;;;11.66;100.00
50123;BME280;36021;48.670;6.184;2023-03-13T05:09:18;98309.50;;;11.70;100.00
50123;BME280;36021;48.670;6.184;2023-03-13T05:12:19;98314.75;;;11.71;100.00
50123;BME280;36021;48.670;6.184;2023-03-13T05:15:15;98311.16;;;11.71;100.00
50123;BME280;36021;48.670;6.184;2023-03-13T05:17:59;98319.44;;;11.71;100.00
50123;BME280;36021;48.670;6.184;2023-03-13T05:20:31;98298.03;;;11.76;100.00
50123;BME280;36021;48.670;6.184;2023-03-13T05:23:08;98312.66;;;11.77;100.00
50123;BME280;36021;48.670;6.184;2023-03-13T05:25:52;98308.44;;;11.79;100.00
50123;BME280;36021;48.670;6.184;2023-03-13T05:28:37;98287.47;;;11.78;100.00
50123;BME280;36021;48.670;6.184;2023-03-13T05:31:37;98272.22;;;11.81;100.00
50123;BME280;36021;48.670;6.184;2023-03-13T05:34:26;98270.59;;;11.80;100.00
50123;BME280;36021;48.670;6.184;2023-03-13T05:37:04;98254.84;;;11.80;100.00
50123;BME280;36021;48.670;6.184;2023-03-13T05:39:30;98268.31;;;11.82;100.00
50123;BME280;36021;48.670;6.184;2023-03-13T05:42:14;98254.03;;;11.80;100.00
50123;BME280;36021;48.670;6.184;2023-03-13T05:44:59;98249.16;;;11.77;100.00
50123;BME280;36021;48.670;6.184;2023-03-13T05:47:39;98251.56;;;11.78;100.00
50123;BME280;36021;48.670;6.184;2023-03-13T05:50:41;98239.75;;;11.78;100.00
50123;BME280;36021;48.670;6.184;2023-03-13T05:53:32;98243.81;;;11.80;100.00
50123;BME280;36021;48.670;6.184;2023-03-13T05:56:07;98245.75;;;11.80;100.00
50123;BME280;36021;48.670;6.184;2023-03-13T05:58:54;98247.22;;;11.77;100.00
50123;BME280;36021;48.670;6.184;2023-03-13T06:01:40;98249.81;;;11.74;100.00
50123;BME280;36021;48.670;6.184;2023-03-13T06:04:19;98259.22;;;11.73;100.00
50123;BME280;36021;48.670;6.184;2023-03-13T06:06:46;98253.84;;;11.76;100.00
50123;BME280;36021;48.670;6.184;2023-03-13T06:09:13;98246.41;;;11.77;100.00
50123;BME280;36021;48.670;6.184;2023-03-13T06:11:39;98248.78;;;11.70;100.00
50123;BME280;36021;48.670;6.184;2023-03-13T06:14:06;98239.69;;;11.69;100.00
50123;BME280;36021;48.670;6.184;2023-03-13T06:16:38;98248.78;;;11.70;100.00
50123;BME280;36021;48.670;6.184;2023-03-13T06:19:19;98249.63;;;11.70;100.00
50123;BME280;36021;48.670;6.184;2023-03-13T06:21:45;98250.94;;;11.73;100.00
50123;BME280;36021;48.670;6.184;2023-03-13T06:24:10;98254.94;;;11.67;100.00
50123;BME280;36021;48.670;6.184;2023-03-13T06:26:36;98243.25;;;11.70;100.00
50123;BME280;36021;48.670;6.184;2023-03-13T06:29:02;98247.03;;;11.74;100.00
50123;BME280;36021;48.670;6.184;2023-03-13T06:31:27;98248.16;;;11.73;100.00
50123;BME280;36021;48.670;6.184;2023-03-13T06:33:54;98254.97;;;11.75;100.00
50123;BME280;36021;48.670;6.184;2023-03-13T06:36:20;98264.09;;;11.76;100.00
50123;BME280;36021;48.670;6.184;2023-03-13T06:38:47;98256.13;;;11.74;100.00
50123;BME280;36021;48.670;6.184;2023-03-13T06:41:13;98268.78;;;11.75;100.00
50123;BME280;36021;48.670;6.184;2023-03-13T06:43:41;98241.34;;;11.79;100.00
50123;BME280;36021;48.670;6.184;2023-03-13T06:46:07;98246.69;;;11.75;100.00
50123;BME280;36021;48.670;6.184;2023-03-13T06:48:33;98253.56;;;11.78;100.00
50123;BME280;36021;48.670;6.184;2023-03-13T06:50:59;98265.06;;;11.80;100.00
50123;BME280;36021;48.670;6.184;2023-03-13T06:53:24;98267.66;;;11.76;100.00
50123;BME280;36021;48.670;6.184;2023-03-13T06:55:50;98267.34;;;11.78;100.00
50123;BME280;36021;48.670;6.184;2023-03-13T06:58:17;98268.13;;;11.78;100.00
50123;BME280;36021;48.670;6.184;2023-03-13T07:00:43;98269.94;;;11.83;100.00
50123;BME280;36021;48.670;6.184;2023-03-13T07:03:09;98281.16;;;11.86;100.00
50123;BME280;36021;48.670;6.184;2023-03-13T07:05:36;98272.53;;;11.88;100.00
50123;BME280;36021;48.670;6.184;2023-03-13T07:08:02;98267.03;;;11.88;100.00
50123;BME280;36021;48.670;6.184;2023-03-13T07:10:30;98269.16;;;11.91;100.00
50123;BME280;36021;48.670;6.184;2023-03-13T07:12:56;98260.06;;;11.90;100.00
50123;BME280;36021;48.670;6.184;2023-03-13T07:15:23;98259.72;;;11.92;100.00
50123;BME280;36021;48.670;6.184;2023-03-13T07:17:49;98242.03;;;11.93;100.00
50123;BME280;36021;48.670;6.184;2023-03-13T07:20:14;98237.66;;;12.00;100.00
50123;BME280;36021;48.670;6.184;2023-03-13T07:22:40;98227.91;;;12.12;100.00
50123;BME280;36021;48.670;6.184;2023-03-13T07:25:06;98227.94;;;12.20;100.00
50123;BME280;36021;48.670;6.184;2023-03-13T07:27:32;98234.25;;;12.29;100.00
50123;BME280;36021;48.670;6.184;2023-03-13T07:29:58;98225.31;;;12.41;100.00
50123;BME280;36021;48.670;6.184;2023-03-13T07:32:23;98213.28;;;12.45;100.00
50123;BME280;36021;48.670;6.184;2023-03-13T07:34:49;98214.91;;;12.55;100.00
50123;BME280;36021;48.670;6.184;2023-03-13T07:37:15;98204.16;;;12.53;100.00
50123;BME280;36021;48.670;6.184;2023-03-13T07:39:42;98207.91;;;12.58;100.00
50123;BME280;36021;48.670;6.184;2023-03-13T07:42:11;98195.84;;;12.71;100.00
50123;BME280;36021;48.670;6.184;2023-03-13T07:44:42;98189.31;;;12.67;100.00
50123;BME280;36021;48.670;6.184;2023-03-13T07:47:09;98190.97;;;12.68;100.00
50123;BME280;36021;48.670;6.184;2023-03-13T07:49:35;98189.31;;;12.67;100.00
50123;BME280;36021;48.670;6.184;2023-03-13T07:52:05;98191.44;;;12.78;100.00
50123;BME280;36021;48.670;6.184;2023-03-13T07:54:32;98187.53;;;12.71;100.00
50123;BME280;36021;48.670;6.184;2023-03-13T07:56:58;98184.41;;;12.81;100.00
50123;BME280;36021;48.670;6.184;2023-03-13T07:59:26;98193.38;;;12.78;100.00
50123;BME280;36021;48.670;6.184;2023-03-13T08:01:52;98181.19;;;12.79;100.00
50123;BME280;36021;48.670;6.184;2023-03-13T08:04:18;98199.41;;;12.71;100.00
50123;BME280;36021;48.670;6.184;2023-03-13T08:06:44;98187.22;;;12.72;100.00
50123;BME280;36021;48.670;6.184;2023-03-13T08:09:11;98183.91;;;12.87;100.00
50123;BME280;36021;48.670;6.184;2023-03-13T08:11:38;98169.94;;;13.30;100.00
50123;BME280;36021;48.670;6.184;2023-03-13T08:14:09;98138.34;;;14.55;100.00
50123;BME280;36021;48.670;6.184;2023-03-13T08:16:35;98142.22;;;14.42;100.00
50123;BME280;36021;48.670;6.184;2023-03-13T08:19:02;98142.13;;;14.30;100.00
50123;BME280;36021;48.670;6.184;2023-03-13T08:21:36;98128.94;;;14.36;100.00
50123;BME280;36021;48.670;6.184;2023-03-13T08:24:04;98121.66;;;15.00;100.00
50123;BME280;36021;48.670;6.184;2023-03-13T08:26:32;98117.63;;;14.53;100.00
50123;BME280;36021;48.670;6.184;2023-03-13T08:29:09;98114.31;;;15.81;100.00
50123;BME280;36021;48.670;6.184;2023-03-13T08:31:43;98128.78;;;14.65;100.00
50123;BME280;36021;48.670;6.184;2023-03-13T08:34:12;98124.19;;;14.36;100.00
50123;BME280;36021;48.670;6.184;2023-03-13T08:36:39;98125.69;;;15.15;100.00
50123;BME280;36021;48.670;6.184;2023-03-13T08:39:15;98119.09;;;16.08;100.00
50123;BME280;36021;48.670;6.184;2023-03-13T08:41:41;98105.47;;;15.91;100.00
50123;BME280;36021;48.670;6.184;2023-03-13T08:44:10;98109.13;;;16.62;100.00
50123;BME280;36021;48.670;6.184;2023-03-13T08:46:36;98088.78;;;17.91;100.00
50123;BME280;36021;48.670;6.184;2023-03-13T08:49:02;98091.50;;;17.52;100.00
50123;BME280;36021;48.670;6.184;2023-03-13T08:51:28;98087.00;;;16.38;100.00
50123;BME280;36021;48.670;6.184;2023-03-13T08:53:55;98075.66;;;16.75;100.00
50123;BME280;36021;48.670;6.184;2023-03-13T08:56:23;98090.06;;;16.49;100.00
50123;BME280;36021;48.670;6.184;2023-03-13T08:58:51;98078.25;;;16.24;100.00
50123;BME280;36021;48.670;6.184;2023-03-13T09:01:17;98083.38;;;16.22;100.00
50123;BME280;36021;48.670;6.184;2023-03-13T09:03:42;98080.63;;;16.10;100.00
50123;BME280;36021;48.670;6.184;2023-03-13T09:06:09;98076.97;;;15.94;100.00
50123;BME280;36021;48.670;6.184;2023-03-13T09:08:38;98083.56;;;16.01;100.00
50123;BME280;36021;48.670;6.184;2023-03-13T09:11:11;98087.38;;;15.69;100.00
50123;BME280;36021;48.670;6.184;2023-03-13T09:13:40;98076.75;;;15.99;100.00
50123;BME280;36021;48.670;6.184;2023-03-13T09:16:08;98077.31;;;16.48;100.00
50123;BME280;36021;48.670;6.184;2023-03-13T09:18:35;98051.22;;;17.65;100.00
50123;BME280;36021;48.670;6.184;2023-03-13T09:21:02;98072.91;;;18.98;100.00
50123;BME280;36021;48.670;6.184;2023-03-13T09:23:28;98038.47;;;18.03;100.00
50123;BME280;36021;48.670;6.184;2023-03-13T09:25:55;98041.09;;;17.07;100.00
50123;BME280;36021;48.670;6.184;2023-03-13T09:28:23;98040.00;;;16.96;100.00
50123;BME280;36021;48.670;6.184;2023-03-13T09:30:50;98053.94;;;16.64;100.00
50123;BME280;36021;48.670;6.184;2023-03-13T09:33:17;98032.84;;;16.63;100.00
50123;BME280;36021;48.670;6.184;2023-03-13T09:35:43;98030.06;;;16.20;100.00
50123;BME280;36021;48.670;6.184;2023-03-13T09:38:19;98020.25;;;15.95;100.00
50123;BME280;36021;48.670;6.184;2023-03-13T09:40:51;98009.34;;;16.17;100.00
50123;BME280;36021;48.670;6.184;2023-03-13T09:45:49;98004.94;;;16.01;100.00
50123;BME280;36021;48.670;6.184;2023-03-13T09:48:28;97994.72;;;16.05;100.00
50123;BME280;36021;48.670;6.184;2023-03-13T09:53:37;98001.22;;;16.40;100.00
50123;BME280;36021;48.670;6.184;2023-03-13T09:56:12;97990.81;;;16.37;100.00
50123;BME280;36021;48.670;6.184;2023-03-13T09:58:40;97978.72;;;16.45;100.00
50123;BME280;36021;48.670;6.184;2023-03-13T10:01:11;97987.44;;;16.59;100.00
50123;BME280;36021;48.670;6.184;2023-03-13T10:04:01;97977.03;;;16.56;100.00
50123;BME280;36021;48.670;6.184;2023-03-13T10:06:33;97978.16;;;16.87;100.00
50123;BME280;36021;48.670;6.184;2023-03-13T10:09:04;97996.88;;;17.21;100.00
50123;BME280;36021;48.670;6.184;2023-03-13T10:11:41;97985.53;;;18.48;100.00
50123;BME280;36021;48.670;6.184;2023-03-13T10:19:16;97944.63;;;21.47;100.00
50123;BME280;36021;48.670;6.184;2023-03-13T10:21:45;97944.16;;;22.56;100.00
50123;BME280;36021;48.670;6.184;2023-03-13T10:26:57;97944.16;;;22.31;100.00
50123;BME280;36021;48.670;6.184;2023-03-13T10:29:28;97932.59;;;21.40;100.00
50123;BME280;36021;48.670;6.184;2023-03-13T10:32:01;97932.63;;;21.50;100.00
50123;BME280;36021;48.670;6.184;2023-03-13T10:34:43;97929.34;;;20.76;100.00
50123;BME280;36021;48.670;6.184;2023-03-13T10:37:13;97907.88;;;21.73;100.00
50123;BME280;36021;48.670;6.184;2023-03-13T10:39:39;97903.75;;;21.39;100.00
50123;BME280;36021;48.670;6.184;2023-03-13T10:42:19;97908.03;;;21.19;100.00
50123;BME280;36021;48.670;6.184;2023-03-13T10:44:46;97896.75;;;22.09;100.00
50123;BME280;36021;48.670;6.184;2023-03-13T10:47:13;97897.31;;;21.35;100.00
50123;BME280;36021;48.670;6.184;2023-03-13T10:49:55;97892.78;;;20.58;100.00
50123;BME280;36021;48.670;6.184;2023-03-13T10:52:34;97885.66;;;19.80;100.00
50123;BME280;36021;48.670;6.184;2023-03-13T10:55:09;97881.22;;;20.60;100.00
50123;BME280;36021;48.670;6.184;2023-03-13T10:57:40;97871.53;;;21.08;100.00
50123;BME280;36021;48.670;6.184;2023-03-13T11:00:41;97869.53;;;22.27;100.00
50123;BME280;36021;48.670;6.184;2023-03-13T11:03:30;97861.47;;;23.07;100.00
50123;BME280;36021;48.670;6.184;2023-03-13T11:06:00;97828.34;;;23.53;100.00
50123;BME280;36021;48.670;6.184;2023-03-13T11:08:33;97836.25;;;25.20;100.00
50123;BME280;36021;48.670;6.184;2023-03-13T11:11:02;97822.09;;;25.87;100.00
50123;BME280;36021;48.670;6.184;2023-03-13T11:13:39;97823.78;;;24.80;100.00
50123;BME280;36021;48.670;6.184;2023-03-13T11:16:21;97816.09;;;23.88;100.00
50123;BME280;36021;48.670;6.184;2023-03-13T11:21:33;97822.81;;;24.56;100.00
50123;BME280;36021;48.670;6.184;2023-03-13T11:24:09;97807.41;;;25.39;100.00
50123;BME280;36021;48.670;6.184;2023-03-13T11:26:45;97795.84;;;24.96;100.00
50123;BME280;36021;48.670;6.184;2023-03-13T11:31:48;97782.22;;;24.87;100.00
50123;BME280;36021;48.670;6.184;2023-03-13T11:34:22;97781.88;;;24.85;100.00
50123;BME280;36021;48.670;6.184;2023-03-13T11:39:45;97776.56;;;23.40;100.00
50123;BME280;36021;48.670;6.184;2023-03-13T11:47:22;97776.84;;;20.66;100.00
50123;BME280;36021;48.670;6.184;2023-03-13T11:50:11;97748.72;;;20.45;100.00
50123;BME280;36021;48.670;6.184;2023-03-13T11:53:14;97770.78;;;20.03;100.00
50123;BME280;36021;48.670;6.184;2023-03-13T11:58:39;97749.03;;;19.79;100.00
50123;BME280;36021;48.670;6.184;2023-03-13T12:01:18;97735.19;;;19.96;100.00
50123;BME280;36021;48.670;6.184;2023-03-13T12:06:37;97708.25;;;21.22;100.00
50123;BME280;36021;48.670;6.184;2023-03-13T12:09:13;97693.91;;;21.55;100.00
50123;BME280;36021;48.670;6.184;2023-03-13T12:12:03;97709.91;;;21.58;100.00
50123;BME280;36021;48.670;6.184;2023-03-13T12:14:36;97677.06;;;21.55;100.00
50123;BME280;36021;48.670;6.184;2023-03-13T12:17:10;97673.75;;;22.45;100.00
50123;BME280;36021;48.670;6.184;2023-03-13T12:22:31;97673.38;;;22.40;100.00
50123;BME280;36021;48.670;6.184;2023-03-13T12:25:04;97654.56;;;22.22;100.00
50123;BME280;36021;48.670;6.184;2023-03-13T12:33:20;97644.81;;;23.35;100.00
50123;BME280;36021;48.670;6.184;2023-03-13T12:36:04;97636.78;;;24.60;100.00
50123;BME280;36021;48.670;6.184;2023-03-13T12:38:49;97629.94;;;23.42;100.00
50123;BME280;36021;48.670;6.184;2023-03-13T12:41:25;97623.41;;;23.52;100.00
50123;BME280;36021;48.670;6.184;2023-03-13T12:43:53;97618.25;;;23.43;100.00
50123;BME280;36021;48.670;6.184;2023-03-13T12:46:45;97599.28;;;23.54;100.00
50123;BME280;36021;48.670;6.184;2023-03-13T12:49:19;97587.50;;;25.28;100.00
50123;BME280;36021;48.670;6.184;2023-03-13T12:57:02;97584.13;;;22.82;100.00
50123;BME280;36021;48.670;6.184;2023-03-13T12:59:46;97571.38;;;23.26;100.00
50123;BME280;36021;48.670;6.184;2023-03-13T13:02:23;97582.28;;;23.68;100.00
50123;BME280;36021;48.670;6.184;2023-03-13T13:04:52;97559.09;;;23.95;100.00
50123;BME280;36021;48.670;6.184;2023-03-13T13:07:31;97565.00;;;24.04;100.00
50123;BME280;36021;48.670;6.184;2023-03-13T13:12:39;97534.44;;;22.69;100.00
50123;BME280;36021;48.670;6.184;2023-03-13T13:15:22;97537.66;;;23.22;100.00
50123;BME280;36021;48.670;6.184;2023-03-13T13:18:28;97532.34;;;22.83;100.00
50123;BME280;36021;48.670;6.184;2023-03-13T13:23:29;97532.72;;;22.06;100.00
50123;BME280;36021;48.670;6.184;2023-03-13T13:28:55;97513.09;;;22.06;100.00
50123;BME280;36021;48.670;6.184;2023-03-13T13:36:57;97507.69;;;22.43;100.00
50123;BME280;36021;48.670;6.184;2023-03-13T13:39:40;97481.53;;;23.12;100.00
50123;BME280;36021;48.670;6.184;2023-03-13T13:47:46;97484.31;;;21.91;100.00
50123;BME280;36021;48.670;6.184;2023-03-13T13:52:43;97485.25;;;21.14;100.00
50123;BME280;36021;48.670;6.184;2023-03-13T13:58:10;97464.00;;;21.45;100.00
50123;BME280;36021;48.670;6.184;2023-03-13T14:00:47;97459.06;;;21.91;100.00
50123;BME280;36021;48.670;6.184;2023-03-13T14:03:19;97446.97;;;22.05;100.00
50123;BME280;36021;48.670;6.184;2023-03-13T14:05:47;97450.78;;;22.36;100.00
50123;BME280;36021;48.670;6.184;2023-03-13T14:08:25;97437.28;;;22.71;100.00
50123;BME280;36021;48.670;6.184;2023-03-13T14:13:41;97413.06;;;23.29;100.00
50123;BME280;36021;48.670;6.184;2023-03-13T14:18:43;97400.41;;;23.81;100.00
50123;BME280;36021;48.670;6.184;2023-03-13T14:21:08;97413.53;;;23.61;100.00
50123;BME280;36021;48.670;6.184;2023-03-13T14:23:40;97391.66;;;23.42;100.00
50123;BME280;36021;48.670;6.184;2023-03-13T14:26:13;97397.19;;;23.12;100.00
50123;BME280;36021;48.670;6.184;2023-03-13T14:28:43;97386.09;;;23.35;100.00
50123;BME280;36021;48.670;6.184;2023-03-13T14:31:27;97381.22;;;23.73;100.00
50123;BME280;36021;48.670;6.184;2023-03-13T14:33:55;97368.88;;;23.94;100.00